• Join FlightAware (Why Join?)
  • Login
  • US Flag 
05:42PM EST


 

Airport Tracker/Info


-or-


 

Live Flight TrackerFlight Track Log ✈ FDX9121 ✈ 29-Mar-2013 ✈ CYEG - KMEM

Flight Track Log - Related Links

Times and Time Zones

All times are in EDT time to prevent confusion due to time zone crossing. See the FDX9121 flight status page for this flight to view local times or setup timezone preferences in your user account.

Time Position Orientation Groundspeed Altitude Reporting Facility
EDT Latitude Longitude Course Direction KTS MPH feet Rate Location/Type
12:12PM 53.2500 -113.5500 136° Southeast 170 196 4,500  Level Edmonton Center
12:13PM 53.2120 -113.4430 136° Southeast 287 330 6,900 2,580 Climbing FlightAware
12:13PM 53.1740 -113.3830 137° Southeast 300 345 9,100 3,420 Climbing FlightAware
12:14PM 53.1280 -113.3080 136° Southeast 313 360 11,500 2,640 Climbing FlightAware
12:15PM 53.0840 -113.2370 136° Southeast 368 423 12,900 2,520 Climbing FlightAware
12:15PM 53.0320 -113.1520 135° Southeast 400 460 14,900 3,240 Climbing FlightAware
12:16PM 52.9710 -113.0530 136° Southeast 416 479 17,500 3,300 Climbing FlightAware
12:17PM 52.9140 -112.9630 136° Southeast 428 493 19,600 3,060 Climbing FlightAware
12:18PM 52.8490 -112.8590 136° Southeast 444 511 21,900 2,880 Climbing FlightAware
12:18PM 52.7890 -112.7640 136° Southeast 454 522 23,700 2,460 Climbing FlightAware
12:19PM 52.7270 -112.6660 136° Southeast 468 539 25,200 2,220 Climbing FlightAware
12:20PM 52.6560 -112.5540 136° Southeast 479 551 26,900 2,160 Climbing FlightAware
12:20PM 52.5910 -112.4530 137° Southeast 485 558 28,300 2,100 Climbing FlightAware
12:21PM 52.5190 -112.3400 136° Southeast 489 563 29,900 2,160 Climbing FlightAware
12:22PM 52.4520 -112.2360 137° Southeast 489 563 31,400 2,160 Climbing FlightAware
12:22PM 52.3860 -112.1340 137° Southeast 490 564 32,800 1,920 Climbing FlightAware
12:23PM 52.3120 -112.0200 137° Southeast 491 565 34,200 1,800 Climbing FlightAware
12:24PM 52.2470 -111.9210 137° Southeast 490 564 35,400 1,620 Climbing FlightAware
12:25PM 52.1700 -111.8050 137° Southeast 487 560 36,500 1,080 Climbing FlightAware
12:25PM 52.1080 -111.7110 137° Southeast 489 563 37,000 360 Climbing FlightAware
12:26PM 52.0460 -111.6150 136° Southeast 485 558 37,000  Level FlightAware
12:27PM 51.9630 -111.4910 137° Southeast 487 560 37,000  Level FlightAware
12:27PM 51.9040 -111.4040 138° Southeast 486 559 37,000  Level FlightAware
12:28PM 51.8300 -111.2940 137° Southeast 484 557 37,000  Level FlightAware
12:29PM 51.7570 -111.1860 137° Southeast 484 557 37,000  Level FlightAware
12:29PM 51.6900 -111.0860 137° Southeast 484 557 37,000  Level FlightAware
12:30PM 51.6170 -110.9790 138° Southeast 484 557 37,000  Level FlightAware
12:31PM 51.5490 -110.8800 138° Southeast 480 552 37,000  Level FlightAware
12:32PM 51.4760 -110.7730 138° Southeast 481 554 37,000  Level FlightAware
12:32PM 51.4290 -110.7030 137° Southeast 481 554 37,000  Level FlightAware
12:33PM 51.3440 -110.5820 138° Southeast 481 554 37,000  Level FlightAware
12:34PM 51.2700 -110.4760 138° Southeast 481 554 37,000  Level FlightAware
12:34PM 51.1980 -110.3730 138° Southeast 482 555 37,000  Level FlightAware
12:35PM 51.1330 -110.2800 138° Southeast 481 554 37,000  Level FlightAware
12:36PM 51.0680 -110.1830 137° Southeast 481 554 37,000  Level FlightAware
12:36PM 51.0130 -110.1010 137° Southeast 481 554 37,000  Level FlightAware
12:37PM 50.9160 -109.9730 140° Southeast 479 551 37,000  Level FlightAware
12:38PM 50.8330 -109.8610 140° Southeast 485 558 37,000  Level FlightAware
12:39PM 50.7740 -109.7830 140° Southeast 485 558 37,000  Level FlightAware
12:39PM 50.7010 -109.6870 140° Southeast 485 558 37,000  Level FlightAware
12:40PM 50.5840 -109.5340 140° Southeast 482 555 37,000  Level FlightAware
12:41PM 50.5090 -109.4380 141° Southeast 485 558 37,000  Level FlightAware
12:42PM 50.4510 -109.3610 140° Southeast 485 558 37,000  Level FlightAware
12:42PM 50.3930 -109.2840 140° Southeast 485 558 37,000  Level FlightAware
12:43PM 50.3200 -109.1880 140° Southeast 485 558 37,000 1,080 Level FlightAware
12:44PM 50.2190 -109.0620 141° Southeast 479 551 38,700 1,500 Climbing FlightAware
12:44PM 50.1650 -108.9900 139° Southeast 479 551 38,900 180 Climbing FlightAware
12:45PM 50.0800 -108.8830 141° Southeast 483 556 39,000 60 Climbing FlightAware
12:46PM 49.9960 -108.7760 141° Southeast 482 555 39,000  Level FlightAware
12:47PM 49.9430 -108.7060 140° Southeast 482 555 39,000  Level FlightAware
12:47PM 49.8570 -108.6000 142° Southeast 479 551 39,000  Level FlightAware
12:48PM 49.7990 -108.5250 140° Southeast 479 551 39,000  Level FlightAware
12:49PM 49.7410 -108.4500 140° Southeast 479 551 39,000  Level FlightAware
12:49PM 49.6840 -108.3750 140° Southeast 479 551 39,000  Level FlightAware
12:50PM 49.6260 -108.3000 140° Southeast 479 551 39,000  Level FlightAware
12:51PM 49.5540 -108.2070 140° Southeast 479 551 39,000  Level FlightAware
12:52PM 49.4960 -108.1320 140° Southeast 479 551 39,000  Level FlightAware
12:52PM 49.4380 -108.0570 140° Southeast 479 551 39,000  Level FlightAware
12:53PM 49.3800 -107.9830 140° Southeast 479 551 39,000  Level FlightAware
12:54PM 49.3230 -107.9090 140° Southeast 479 551 39,000  Level FlightAware
12:54PM 49.2510 -107.8160 140° Southeast 479 551 39,000  Level FlightAware
12:55PM 49.1930 -107.7420 140° Southeast 479 551 39,000  Level FlightAware
12:56PM 49.1350 -107.6680 140° Southeast 479 551 39,000  Level FlightAware
12:56PM 49.0770 -107.5940 140° Southeast 479 551 39,000  Level FlightAware
12:57PM 48.8500 -107.4000 140° Southeast 480 552 39,000  Level Winnipeg Center
12:58PM 48.7500 -107.2833 142° Southeast 480 552 39,000  Level Edmonton Center
12:58PM 48.7328 -107.2308 116° Southeast 482 555 39,000 -120 Level Salt Lake Center
12:59PM 48.6281 -107.1067 142° Southeast 481 554 38,900  Descending Salt Lake Center
01:00PM 48.5217 -106.9814 142° Southeast 483 556 39,000  Climbing Salt Lake Center
01:01PM 48.3928 -106.8328 143° Southeast 487 560 39,000  Level Salt Lake Center
01:02PM 48.2867 -106.7103 142° Southeast 486 559 39,000  Level Salt Lake Center
01:03PM 48.1819 -106.5844 141° Southeast 485 558 39,000  Level Salt Lake Center
01:04PM 48.0950 -106.4267 129° Southeast 491 565 39,000  Level Salt Lake Center
01:05PM 48.0078 -106.2744 131° Southeast 489 563 39,000  Level Salt Lake Center
01:06PM 47.9194 -106.1208 131° Southeast 488 562 39,000  Level Salt Lake Center
01:07PM 47.8319 -105.9700 131° Southeast 486 559 39,000  Level Salt Lake Center
01:08PM 47.7411 -105.8208 132° Southeast 488 562 39,000  Level Salt Lake Center
01:09PM 47.6342 -105.6431 132° Southeast 487 560 39,000  Level Salt Lake Center
01:10PM 47.5436 -105.4933 132° Southeast 489 563 39,000  Level Salt Lake Center
01:11PM 47.4519 -105.3431 132° Southeast 494 568 39,000 -60 Level Salt Lake Center
01:12PM 47.3608 -105.1953 132° Southeast 492 566 38,900  Descending Salt Lake Center
01:13PM 47.2708 -105.0494 132° Southeast 489 563 39,000  Climbing Salt Lake Center
01:14PM 47.1794 -104.9022 132° Southeast 489 563 39,000  Level Salt Lake Center
01:15PM 47.0692 -104.7247 132° Southeast 492 566 39,000  Level Salt Lake Center
01:17PM 46.9764 -104.5769 133° Southeast 495 570 39,000  Level Salt Lake Center
01:18PM 46.8850 -104.4322 133° Southeast 492 566 39,000  Level Salt Lake Center
01:19PM 46.7919 -104.2853 133° Southeast 492 566 39,000  Level Salt Lake Center
01:20PM 46.6981 -104.1375 133° Southeast 497 572 39,000  Level Salt Lake Center
01:21PM 46.6056 -103.9919 133° Southeast 496 571 39,000  Level Salt Lake Center
01:22PM 46.5108 -103.8458 133° Southeast 497 572 39,000  Level Salt Lake Center
01:23PM 46.3983 -103.6706 133° Southeast 497 572 39,000  Level Salt Lake Center
01:24PM 46.3058 -103.5278 133° Southeast 494 568 39,000 -60 Level Salt Lake Center
01:25PM 46.2117 -103.3839 133° Southeast 494 568 38,900  Descending Salt Lake Center
01:25PM 46.1581 -103.2986 132° Southeast 492 566 39,000 60 Climbing Minneapolis Center
01:26PM 46.0642 -103.1583 134° Southeast 490 564 39,000  Level Minneapolis Center
01:27PM 45.9714 -103.0172 133° Southeast 488 562 39,000  Level Minneapolis Center
01:29PM 45.8781 -102.8750 133° Southeast 489 563 39,000 -60 Level Minneapolis Center
01:30PM 45.7656 -102.7058 134° Southeast 489 563 38,900  Descending Minneapolis Center
01:31PM 45.6675 -102.5736 137° Southeast 485 558 39,000  Climbing Minneapolis Center
01:32PM 45.5544 -102.4081 134° Southeast 485 558 39,000  Level Minneapolis Center
01:33PM 45.4422 -102.2417 134° Southeast 486 559 39,000  Level Minneapolis Center
01:34PM 45.3486 -102.1039 134° Southeast 486 559 39,000  Level Minneapolis Center
01:35PM 45.2542 -101.9664 134° Southeast 487 560 39,000  Level Minneapolis Center
01:36PM 45.1586 -101.8311 135° Southeast 487 560 39,000  Level Minneapolis Center
01:37PM 45.0431 -101.6714 136° Southeast 486 559 39,000  Level Minneapolis Center
01:38PM 44.9406 -101.5486 140° Southeast 484 557 39,000  Level Minneapolis Center
01:39PM 44.8392 -101.4228 139° Southeast 486 559 39,000  Level Minneapolis Center
01:40PM 44.7386 -101.2989 139° Southeast 485 558 39,000  Level Minneapolis Center
01:41PM 44.6378 -101.1769 139° Southeast 483 556 39,000  Level Minneapolis Center
01:42PM 44.5350 -101.0558 140° Southeast 483 556 39,000  Level Minneapolis Center
01:43PM 44.4128 -100.9083 139° Southeast 484 557 39,000  Level Minneapolis Center
01:44PM 44.3103 -100.7858 139° Southeast 486 559 39,000  Level Minneapolis Center
01:45PM 44.2069 -100.6633 140° Southeast 488 562 39,000  Level Minneapolis Center
01:46PM 44.1050 -100.5419 139° Southeast 486 559 39,000  Level Minneapolis Center
01:47PM 44.0036 -100.4222 140° Southeast 483 556 39,000  Level Minneapolis Center
01:48PM 43.9014 -100.3017 140° Southeast 483 556 39,000  Level Minneapolis Center
01:49PM 43.7772 -100.1578 140° Southeast 486 559 39,000  Level Minneapolis Center
01:50PM 43.6733 -100.0375 140° Southeast 487 560 39,000  Level Minneapolis Center
01:52PM 43.5703 -99.9183 140° Southeast 486 559 39,000  Level Minneapolis Center
01:53PM 43.4664 -99.8006 141° Southeast 485 558 39,000  Level Minneapolis Center
01:54PM 43.3622 -99.6797 140° Southeast 489 563 39,000  Level Minneapolis Center
01:55PM 43.2592 -99.5614 140° Southeast 486 559 39,000  Level Minneapolis Center
01:56PM 43.1333 -99.4194 141° Southeast 488 562 39,000  Level Minneapolis Center
01:57PM 43.0417 -99.3169 141° Southeast 486 559 39,000  Level Minneapolis Center
01:58PM 42.9156 -99.1769 141° Southeast 487 560 39,000  Level Minneapolis Center
01:59PM 42.8097 -99.0592 141° Southeast 490 564 39,000  Level Minneapolis Center
02:00PM 42.7042 -98.9408 141° Southeast 490 564 39,000  Level Minneapolis Center
02:01PM 42.5981 -98.8242 141° Southeast 489 563 39,000  Level Minneapolis Center
02:02PM 42.4925 -98.7100 141° Southeast 486 559 39,000  Level Minneapolis Center
02:03PM 42.3908 -98.5850 138° Southeast 489 563 39,000  Level Minneapolis Center
02:04PM 42.2922 -98.4547 136° Southeast 494 568 39,000  Level Minneapolis Center
02:05PM 42.1936 -98.3278 136° Southeast 490 564 39,000  Level Minneapolis Center
02:06PM 42.0753 -98.1742 136° Southeast 490 564 39,000  Level Minneapolis Center
02:07PM 41.9861 -98.0617 137° Southeast 486 559 39,000  Level Minneapolis Center
02:08PM 41.8872 -97.9356 136° Southeast 489 563 39,000  Level Minneapolis Center
02:09PM 41.7886 -97.8111 137° Southeast 488 562 39,000  Level Minneapolis Center
02:10PM 41.6708 -97.6636 137° Southeast 486 559 39,000  Level Minneapolis Center
02:11PM 41.5711 -97.5386 137° Southeast 490 564 39,000  Level Minneapolis Center
02:12PM 41.4719 -97.4150 137° Southeast 490 564 39,000  Level Minneapolis Center
02:13PM 41.3625 -97.3100 144° Southeast 491 565 39,000  Level Minneapolis Center
02:14PM 41.2517 -97.2100 146° Southeast 484 557 39,000  Level Minneapolis Center
02:15PM 41.1403 -97.1092 146° Southeast 485 558 39,000  Level Minneapolis Center
02:16PM 41.0086 -96.9886 145° Southeast 484 557 39,000  Level Minneapolis Center
02:17PM 40.8986 -96.8883 145° Southeast 483 556 39,000  Level Minneapolis Center
02:18PM 40.7875 -96.7875 145° Southeast 485 558 39,000  Level Minneapolis Center
02:19PM 40.6764 -96.6864 145° Southeast 487 560 39,000  Level Minneapolis Center
02:20PM 40.5656 -96.5861 145° Southeast 487 560 39,000  Level Minneapolis Center
02:21PM 40.4528 -96.4292 133° Southeast 492 566 39,000  Level Minneapolis Center
02:22PM 40.3581 -96.2975 133° Southeast 495 570 39,000  Level Minneapolis Center
02:24PM 40.2628 -96.1681 134° Southeast 496 571 39,000  Level Minneapolis Center
02:25PM 40.1678 -96.0381 134° Southeast 496 571 39,000  Level Minneapolis Center
02:26PM 40.0725 -95.9064 134° Southeast 499 574 39,000  Level Minneapolis Center
02:27PM 39.9767 -95.7761 134° Southeast 499 574 39,000  Level Minneapolis Center
02:28PM 39.8570 -95.6170 133° Southeast 493 567 39,000  Level FlightAware
02:28PM 39.7920 -95.5300 134° Southeast 494 568 39,000  Level FlightAware
02:29PM 39.7200 -95.4340 134° Southeast 493 567 39,000  Level FlightAware
02:30PM 39.6570 -95.3520 135° Southeast 492 566 39,000  Level FlightAware
02:30PM 39.5940 -95.2670 134° Southeast 493 567 39,000  Level FlightAware
02:31PM 39.5190 -95.1670 134° Southeast 495 570 39,000  Level FlightAware
02:32PM 39.4570 -95.0850 134° Southeast 495 570 39,000  Level FlightAware
02:33PM 39.3850 -94.9920 135° Southeast 495 570 39,000  Level FlightAware
02:33PM 39.3200 -94.9050 134° Southeast 494 568 39,000  Level FlightAware
02:34PM 39.2570 -94.8210 134° Southeast 494 568 39,000  Level FlightAware
02:35PM 39.1840 -94.7270 135° Southeast 494 568 39,000  Level FlightAware
02:35PM 39.1190 -94.6430 135° Southeast 496 571 39,000  Level FlightAware
02:36PM 39.0470 -94.5500 135° Southeast 497 572 39,000  Level FlightAware
02:37PM 38.9830 -94.4670 135° Southeast 494 568 39,000  Level FlightAware
02:38PM 38.9090 -94.3710 135° Southeast 494 568 39,000  Level FlightAware
02:38PM 38.8430 -94.2860 135° Southeast 492 566 39,000  Level FlightAware
02:39PM 38.7790 -94.2030 135° Southeast 492 566 39,000  Level FlightAware
02:40PM 38.7090 -94.1140 135° Southeast 494 568 39,000  Level FlightAware
02:40PM 38.6440 -94.0310 135° Southeast 496 571 39,000  Level FlightAware
02:41PM 38.5690 -93.9360 135° Southeast 497 572 39,000  Level FlightAware
02:42PM 38.5030 -93.8510 135° Southeast 496 571 39,000  Level FlightAware
02:42PM 38.4380 -93.7690 135° Southeast 496 571 39,000  Level FlightAware
02:44PM 38.3040 -93.6000 135° Southeast 495 570 39,000  Level FlightAware
02:45PM 38.2160 -93.4890 135° Southeast 495 570 39,000  Level FlightAware
02:45PM 38.1390 -93.3930 136° Southeast 496 571 39,000  Level FlightAware
02:46PM 38.0720 -93.3100 136° Southeast 498 573 39,000  Level FlightAware
02:47PM 38.0040 -93.2240 135° Southeast 499 574 39,000  Level FlightAware
02:48PM 38.0850 -93.3240 316° Northwest 500 575 39,000  Level FlightAware
02:49PM 38.0990 -93.3420 315° West 499 574 39,000  Level FlightAware
02:50PM 38.0430 -93.2710 135° Southeast 499 574 39,000  Level FlightAware
02:51PM 38.0990 -93.3420 315° West 500 575 39,000  Level FlightAware
02:52PM 38.0430 -93.2710 135° Southeast 500 575 39,000  Level FlightAware
02:52PM 37.9870 -93.2000 135° Southeast 500 575 39,000  Level FlightAware
02:53PM 38.1350 -93.3870 315° West 39,000  Level FlightAware
02:54PM 37.2511 -92.3200 315° West 493 567 39,000  Level Kansas City Center
02:55PM 37.1503 -92.2044 138° Southeast 492 566 39,000 -1,080 Level Kansas City Center
02:56PM 37.0492 -92.0883 137° Southeast 493 567 36,800 -2,220 Descending Kansas City Center
02:57PM 36.9514 -91.9753 137° Southeast 484 557 34,600 -1,980 Descending Kansas City Center
02:59PM 36.8558 -91.8672 138° Southeast 471 542 32,700 -1,920 Descending Kansas City Center
02:59PM 36.8028 -91.7975 134° Southeast 468 539 31,800 -1,440 Descending Memphis Center
03:00PM 36.7103 -91.6847 136° Southeast 462 532 30,700 -1,260 Descending Memphis Center
03:01PM 36.6133 -91.5694 136° Southeast 467 537 29,300 -1,740 Descending Memphis Center
03:02PM 36.5208 -91.4517 134° Southeast 472 543 27,300 -1,560 Descending Memphis Center
03:03PM 36.4342 -91.3525 137° Southeast 472 543 26,200 -1,080 Descending Memphis Center
03:04PM 36.3411 -91.2406 136° Southeast 472 543 25,200 -1,020 Descending Memphis Center
03:05PM 36.2522 -91.1342 136° Southeast 462 532 24,200 -1,020 Descending Memphis Center
03:06PM 36.1589 -91.0306 138° Southeast 456 525 23,200 -960 Descending Memphis Center
03:07PM 36.0531 -90.9553 150° Southeast 451 519 22,300 -1,200 Descending Memphis Center
03:08PM 35.9383 -90.9133 164° South 432 497 20,900 -2,040 Descending Memphis Center
03:09PM 35.8261 -90.8819 167° South 425 489 18,300 -2,160 Descending Memphis Center
03:10PM 35.7281 -90.8583 169° South 396 456 16,600 -1,500 Descending Memphis Center
03:11PM 35.6322 -90.8322 168° South 367 422 15,300 -1,740 Descending Memphis Center
03:12PM 35.5303 -90.8036 167° South 361 415 13,200 -2,100 Descending Memphis Center
03:13PM 35.4447 -90.7469 152° Southeast 350 403 11,200 -1,620 Descending Memphis Center
03:14PM 35.4200 -90.6425 106° East 315 362 10,000 -960 Descending Memphis Center
03:15PM 35.4097 -90.5456 97° East 284 327 9,300 -1,140 Descending Memphis Center
03:16PM 35.3850 -90.4489 107° East 273 314 7,800 -1,500 Descending Memphis Center
03:17PM 35.3600 -90.3647 110° East 273 314 6,400 -900 Descending Memphis Center
03:18PM 35.3411 -90.2781 105° East 262 302 6,000 -240 Descending Memphis Center
03:19PM 35.3347 -90.1967 95° East 249 287 6,000 -480 Level Memphis Center
03:20PM 35.3325 -90.1153 92° East 243 280 5,100 -1,140 Descending Memphis Center
03:20PM 35.3333 -90.0833 88° East 224 258 4,500 -1,140 Descending KMEM
03:21PM 35.3167 -90.0167 107° East 204 235 3,600 -780 Descending KMEM
03:22PM 35.2667 -90.0000 165° South 176 203 3,000 -300 Descending KMEM
03:23PM 35.2167 -89.9833 165° South 177 204 3,100 -120 Climbing KMEM
03:24PM 35.1833 -89.9833 180° South 151 174 2,800 -540 Descending KMEM
03:25PM 35.1500 -89.9833 180° South 107 123 2,100 -660 Descending KMEM
03:26PM 35.1167 -89.9833 180° South 111 128 1,500 -600 Descending KMEM
03:27PM 35.0833 -89.9833 180° South 120 138 900 -600 Descending KMEM
03:29PM 35.0424 -89.9767 173° South  Level Estimated
03:36PM 35.0424 -89.9767 173° South  Level Estimated